Time;durP1;ratioP1;P1;durP2;ratioP2;P2;SDS_P1;SDS_P2;PMS_P1;PMS_P2;Temp;Humidity;BMP_temperature;BMP_pressure;BME280_temperature;BME280_humidity;BME280_pressure;Samples;Min_cycle;Max_cycle;Signal;HPM_P1;HPM_P2
2022/04/04 00:01:52;;;;;;;15.13;11.20;;;;;;;5.59;100.00;101365.91;5080683;28;20038;-76
2022/04/04 00:04:38;;;;;;;14.90;10.70;;;;;;;5.57;100.00;101362.41;5095880;28;20027;-75
2022/04/04 00:07:24;;;;;;;14.57;11.38;;;;;;;5.72;100.00;101367.81;5095927;28;20035;-76
2022/04/04 00:10:10;;;;;;;14.93;10.93;;;;;;;5.76;100.00;101374.78;5080752;28;20122;-76
2022/04/04 00:12:56;;;;;;;14.77;11.10;;;;;;;5.57;100.00;101378.00;5096031;28;20052;-76
2022/04/04 00:15:42;;;;;;;16.50;11.57;;;;;;;5.52;100.00;101375.34;5097031;28;20032;-77
2022/04/04 00:18:28;;;;;;;15.68;11.68;;;;;;;5.65;100.00;101363.38;5095803;28;20103;-76
2022/04/04 00:21:13;;;;;;;14.80;11.07;;;;;;;5.41;100.00;101374.34;5095443;28;20077;-76
2022/04/04 00:23:59;;;;;;;16.88;11.80;;;;;;;5.64;100.00;101369.44;5095330;28;20024;-76
2022/04/04 00:26:45;;;;;;;15.55;11.13;;;;;;;5.44;100.00;101374.38;5095635;28;20360;-75
2022/04/04 00:29:31;;;;;;;16.00;11.80;;;;;;;5.67;100.00;101375.56;5095064;28;20093;-77
2022/04/04 00:32:17;;;;;;;14.73;10.75;;;;;;;5.63;100.00;101378.09;5095497;28;20027;-77
2022/04/04 00:35:03;;;;;;;17.23;11.68;;;;;;;6.06;100.00;101375.19;5080611;28;20182;-76
2022/04/04 00:37:49;;;;;;;15.10;11.73;;;;;;;5.61;100.00;101378.06;5095714;28;20114;-78
2022/04/04 00:40:35;;;;;;;14.45;11.68;;;;;;;5.58;100.00;101377.16;5095908;28;20036;-78
2022/04/04 00:43:20;;;;;;;16.50;12.48;;;;;;;5.48;100.00;101383.97;5080238;28;20050;-79
2022/04/04 00:46:07;;;;;;;15.90;12.13;;;;;;;5.83;100.00;101387.91;5081594;28;20059;-77
2022/04/04 00:48:52;;;;;;;16.45;11.77;;;;;;;5.90;100.00;101391.47;5095039;28;20441;-78
2022/04/04 00:51:39;;;;;;;17.05;11.93;;;;;;;5.72;100.00;101388.59;5094484;28;20032;-77
2022/04/04 00:54:25;;;;;;;16.95;12.82;;;;;;;5.55;100.00;101391.00;5094835;28;20405;-78
2022/04/04 00:57:10;;;;;;;17.90;12.57;;;;;;;5.66;100.00;101393.75;5094845;28;20024;-78
2022/04/04 00:59:56;;;;;;;16.95;12.00;;;;;;;5.84;100.00;101394.00;5095776;28;20376;-77
2022/04/04 01:02:42;;;;;;;17.00;12.55;;;;;;;5.54;100.00;101401.38;5094021;28;20067;-76
2022/04/04 01:05:28;;;;;;;16.58;12.40;;;;;;;5.38;100.00;101401.16;5094699;28;20503;-80
2022/04/04 01:08:15;;;;;;;16.05;12.02;;;;;;;5.60;100.00;101396.25;5094800;28;20032;-76
2022/04/04 01:11:01;;;;;;;17.52;12.68;;;;;;;5.76;100.00;101400.78;5081045;28;20050;-77
2022/04/04 01:13:48;;;;;;;15.25;11.93;;;;;;;5.76;100.00;101398.19;5094287;28;20062;-77
2022/04/04 01:16:33;;;;;;;16.23;11.70;;;;;;;5.70;100.00;101395.53;5080074;28;20024;-78
2022/04/04 01:19:19;;;;;;;16.15;11.95;;;;;;;5.34;100.00;101406.28;5093879;28;20032;-77
2022/04/04 01:22:07;;;;;;;15.55;12.10;;;;;;;5.47;100.00;101408.22;5094089;28;20367;-77
2022/04/04 01:24:53;;;;;;;16.80;12.32;;;;;;;5.23;100.00;101408.72;5095054;28;20471;-76
2022/04/04 01:27:39;;;;;;;15.40;11.90;;;;;;;5.11;100.00;101408.53;5094757;28;20036;-77
2022/04/04 01:30:26;;;;;;;16.58;12.20;;;;;;;5.43;100.00;101416.81;5080504;28;20032;-77
2022/04/04 01:33:12;;;;;;;17.35;12.80;;;;;;;5.23;100.00;101413.91;5081349;28;20028;-77
2022/04/04 01:35:58;;;;;;;17.30;12.73;;;;;;;5.13;100.00;101408.56;5100344;28;20096;-77
2022/04/04 01:38:44;;;;;;;18.33;13.25;;;;;;;5.25;100.00;101417.41;5102746;28;20024;-77
2022/04/04 01:41:29;;;;;;;20.90;12.85;;;;;;;5.49;100.00;101422.09;5081132;28;20517;-78
2022/04/04 01:44:16;;;;;;;17.30;12.82;;;;;;;5.39;100.00;101417.63;5078798;28;20019;-76
2022/04/04 01:47:02;;;;;;;18.45;13.05;;;;;;;5.08;100.00;101418.88;5080096;28;20089;-77
2022/04/04 01:49:48;;;;;;;18.40;12.55;;;;;;;5.18;100.00;101422.47;5079317;28;20036;-77
2022/04/04 01:52:34;;;;;;;17.10;12.55;;;;;;;5.26;100.00;101418.28;5095329;28;20027;-78
2022/04/04 01:55:19;;;;;;;19.50;13.27;;;;;;;5.43;100.00;101435.84;5079326;28;20020;-77
2022/04/04 01:58:05;;;;;;;19.05;13.70;;;;;;;5.43;100.00;101428.06;5093550;28;20178;-77
2022/04/04 02:00:53;;;;;;;19.67;13.30;;;;;;;5.31;100.00;101435.69;5079838;28;20111;-77
2022/04/04 02:03:40;;;;;;;18.60;13.30;;;;;;;5.09;100.00;101432.72;5095156;28;20378;-77
2022/04/04 02:06:27;;;;;;;19.95;13.20;;;;;;;5.28;100.00;101439.97;5080538;28;20028;-78
2022/04/04 02:09:13;;;;;;;19.17;13.07;;;;;;;4.90;100.00;101441.06;5096892;28;20020;-77
2022/04/04 02:11:59;;;;;;;18.33;13.38;;;;;;;5.20;100.00;101429.44;5097792;27;20028;-78
2022/04/04 02:14:45;;;;;;;18.27;13.40;;;;;;;5.16;100.00;101429.38;5099309;28;20327;-77
2022/04/04 02:17:30;;;;;;;20.08;14.10;;;;;;;5.23;100.00;101433.84;5097609;28;20032;-77
2022/04/04 02:20:16;;;;;;;19.00;13.85;;;;;;;5.48;100.00;101435.94;5098572;28;20020;-77
2022/04/04 02:23:03;;;;;;;19.60;14.32;;;;;;;5.47;100.00;101429.84;5098362;28;20059;-77
2022/04/04 02:25:50;;;;;;;19.55;14.02;;;;;;;5.28;100.00;101425.22;5098390;28;20089;-77
2022/04/04 02:28:35;;;;;;;20.02;14.05;;;;;;;5.23;100.00;101426.91;5083482;28;20081;-77
2022/04/04 02:31:21;;;;;;;20.35;14.35;;;;;;;5.31;100.00;101433.09;5096582;28;20134;-77
2022/04/04 02:34:07;;;;;;;19.95;14.55;;;;;;;5.31;100.00;101433.09;5096616;28;20361;-79
2022/04/04 02:36:53;;;;;;;20.83;15.05;;;;;;;5.41;100.00;101431.50;5082355;28;20412;-78
2022/04/04 02:39:38;;;;;;;21.75;14.75;;;;;;;5.36;100.00;101434.00;5082882;28;20110;-77
2022/04/04 02:42:24;;;;;;;23.48;15.93;;;;;;;5.11;100.00;101428.44;5097342;28;20070;-77
2022/04/04 02:45:10;;;;;;;22.65;15.50;;;;;;;5.01;100.00;101432.63;5083099;28;20020;-77
2022/04/04 02:47:56;;;;;;;23.83;16.15;;;;;;;4.87;100.00;101435.84;5082977;28;20031;-76
2022/04/04 02:50:43;;;;;;;21.08;15.30;;;;;;;4.57;100.00;101443.06;5082732;28;20063;-76
2022/04/04 02:53:29;;;;;;;23.65;15.75;;;;;;;4.76;100.00;101448.63;5098830;28;20530;-77
2022/04/04 02:56:30;;;;;;;23.65;15.85;;;;;;;4.77;100.00;101457.28;5097461;28;20028;-77
2022/04/04 02:59:16;;;;;;;21.35;15.40;;;;;;;4.89;100.00;101458.38;5097629;28;20043;-77
2022/04/04 03:02:02;;;;;;;22.25;15.50;;;;;;;4.83;100.00;101450.47;5096961;28;20469;-78
2022/04/04 03:04:48;;;;;;;22.45;15.35;;;;;;;4.92;100.00;101452.34;5097742;28;20058;-77
2022/04/04 03:07:33;;;;;;;21.40;15.57;;;;;;;4.94;100.00;101461.03;5097217;28;20020;-76
2022/04/04 03:10:21;;;;;;;24.70;16.75;;;;;;;4.52;100.00;101453.38;5082358;28;20452;-76
2022/04/04 03:13:07;;;;;;;24.45;15.95;;;;;;;4.44;100.00;101459.28;5082948;28;20056;-76
2022/04/04 03:15:52;;;;;;;26.92;16.10;;;;;;;4.41;100.00;101459.19;5097340;28;20031;-76
2022/04/04 03:18:38;;;;;;;26.52;17.27;;;;;;;4.55;100.00;101460.34;5080501;28;20028;-77
2022/04/04 03:21:29;;;;;;;24.35;16.73;;;;;;;4.50;100.00;101456.78;5082752;28;20041;-75
2022/04/04 03:24:14;;;;;;;23.08;16.13;;;;;;;4.41;100.00;101459.19;5096715;28;20055;-76
2022/04/04 03:27:01;;;;;;;25.45;16.70;;;;;;;4.63;100.00;101458.78;5081969;28;20020;-75
2022/04/04 03:29:46;;;;;;;24.98;16.20;;;;;;;4.85;100.00;101466.97;5095796;28;20047;-76
2022/04/04 03:32:33;;;;;;;24.55;16.77;;;;;;;4.71;100.00;101463.22;5096365;28;20024;-75
2022/04/04 03:35:19;;;;;;;24.60;16.65;;;;;;;4.88;100.00;101463.53;5096964;28;20423;-77
2022/04/04 03:38:06;;;;;;;24.80;16.58;;;;;;;4.79;100.00;101469.44;5096570;28;20035;-76
2022/04/04 03:40:52;;;;;;;26.00;17.20;;;;;;;4.85;100.00;101477.34;5095538;28;20039;-77
2022/04/04 03:43:38;;;;;;;24.80;17.40;;;;;;;4.67;100.00;101476.16;5096229;28;20024;-75
2022/04/04 03:46:24;;;;;;;24.80;16.55;;;;;;;4.81;100.00;101477.25;5083320;28;20063;-76
2022/04/04 03:49:10;;;;;;;25.85;17.42;;;;;;;4.63;100.00;101471.75;5096517;28;20020;-76
2022/04/04 03:51:56;;;;;;;24.25;17.13;;;;;;;4.76;100.00;101486.69;5096872;28;20028;-76
2022/04/04 03:54:42;;;;;;;23.58;16.05;;;;;;;4.58;100.00;101487.22;5107279;28;20024;-75
2022/04/04 03:57:28;;;;;;;24.95;16.88;;;;;;;4.49;100.00;101500.03;5097676;28;20027;-77
2022/04/04 04:00:15;;;;;;;25.52;16.98;;;;;;;4.64;100.00;101489.94;5096429;28;20112;-76
2022/04/04 04:03:01;;;;;;;23.88;16.35;;;;;;;4.47;100.00;101500.84;5096024;28;20046;-77
2022/04/04 04:05:47;;;;;;;25.48;17.90;;;;;;;4.34;100.00;101498.84;5095548;28;20053;-76
2022/04/04 04:08:33;;;;;;;25.27;16.63;;;;;;;4.53;100.00;101503.53;5081222;28;20024;-77
2022/04/04 04:11:19;;;;;;;25.23;17.33;;;;;;;4.38;100.00;101518.84;5096853;28;20027;-77
2022/04/04 04:14:05;;;;;;;25.00;16.92;;;;;;;4.53;100.00;101514.81;5096156;28;20047;-77
2022/04/04 04:16:51;;;;;;;23.23;16.08;;;;;;;4.45;100.00;101523.28;5095364;28;20044;-78
2022/04/04 04:22:41;;;;;;;26.75;17.48;;;;;;;4.57;100.00;101532.19;5095254;28;20467;-77
2022/04/04 04:25:29;;;;;;;25.85;16.77;;;;;;;4.75;100.00;101535.13;5081561;28;20372;-77
2022/04/04 04:28:15;;;;;;;25.67;17.48;;;;;;;4.65;100.00;101541.00;5095033;28;20444;-77
2022/04/04 04:31:02;;;;;;;24.40;17.00;;;;;;;4.93;100.00;101543.25;5094942;28;20024;-78
2022/04/04 04:33:48;;;;;;;26.75;16.88;;;;;;;4.48;100.00;101549.28;5096696;28;20036;-78
2022/04/04 04:36:36;;;;;;;27.27;17.25;;;;;;;4.53;100.00;101542.47;5094895;28;20036;-76
2022/04/04 04:39:22;;;;;;;23.33;16.70;;;;;;;4.73;100.00;101539.41;5094849;28;20039;-77
2022/04/04 04:42:08;;;;;;;30.27;17.55;;;;;;;4.68;100.00;101543.66;5094582;28;20425;-77
2022/04/04 04:44:54;;;;;;;24.40;17.23;;;;;;;4.90;100.00;101545.78;5096347;28;20032;-78
2022/04/04 04:47:41;;;;;;;26.10;17.45;;;;;;;5.02;100.00;101550.31;5095257;28;20024;-76
2022/04/04 04:50:28;;;;;;;27.10;17.88;;;;;;;4.76;100.00;101557.66;5094379;28;20065;-77
2022/04/04 04:53:14;;;;;;;26.45;17.13;;;;;;;4.70;100.00;101552.34;5094948;28;20028;-76
2022/04/04 04:56:00;;;;;;;26.92;16.25;;;;;;;4.90;100.00;101551.00;5080669;28;20107;-77
2022/04/04 04:58:45;;;;;;;27.13;18.08;;;;;;;5.10;100.00;101553.94;5095649;28;20024;-76
2022/04/04 05:01:31;;;;;;;26.70;18.30;;;;;;;4.90;100.00;101557.88;5094835;28;20035;-76
2022/04/04 05:04:18;;;;;;;26.13;17.75;;;;;;;5.19;100.00;101554.13;5095155;28;20422;-76
2022/04/04 05:07:05;;;;;;;26.27;17.55;;;;;;;5.11;100.00;101558.31;5094912;28;20032;-77
2022/04/04 05:09:50;;;;;;;27.67;18.55;;;;;;;5.09;100.00;101570.38;5094802;28;20024;-77
2022/04/04 05:12:36;;;;;;;26.65;18.08;;;;;;;5.01;100.00;101575.44;5094286;28;20055;-77
2022/04/04 05:15:23;;;;;;;29.55;19.48;;;;;;;5.10;100.00;101577.31;5094650;28;20089;-77
2022/04/04 05:18:09;;;;;;;29.20;19.15;;;;;;;5.37;100.00;101575.19;5094621;28;20024;-78
2022/04/04 05:20:56;;;;;;;29.95;17.98;;;;;;;5.15;100.00;101575.69;5096138;28;20048;-77
2022/04/04 05:23:42;;;;;;;28.05;17.95;;;;;;;5.18;100.00;101586.13;5094043;28;20031;-76
2022/04/04 05:26:29;;;;;;;28.77;18.08;;;;;;;5.20;100.00;101592.22;5094009;28;20035;-77
2022/04/04 05:29:17;;;;;;;28.10;19.40;;;;;;;5.29;100.00;101598.47;5093697;28;20082;-77
2022/04/04 05:32:03;;;;;;;27.85;17.77;;;;;;;5.09;100.00;101604.13;5093122;28;20031;-76
2022/04/04 05:34:49;;;;;;;31.33;18.10;;;;;;;5.34;100.00;101604.63;5093387;28;20023;-78
2022/04/04 05:37:35;;;;;;;26.45;17.60;;;;;;;5.35;100.00;101618.50;5092960;28;20090;-77
2022/04/04 05:40:25;;;;;;;25.67;16.90;;;;;;;5.05;100.00;101623.09;5094556;28;20121;-78
2022/04/04 05:43:11;;;;;;;25.55;16.52;;;;;;;5.38;100.00;101617.66;5093989;28;20459;-78
2022/04/04 05:45:56;;;;;;;24.33;17.25;;;;;;;5.44;100.00;101619.50;5094578;28;20116;-76
2022/04/04 05:48:43;;;;;;;23.50;16.13;;;;;;;5.46;100.00;101627.31;5092999;28;20328;-77
2022/04/04 05:51:29;;;;;;;30.70;18.92;;;;;;;5.80;100.00;101632.25;5094583;28;20102;-76
2022/04/04 05:54:15;;;;;;;24.20;16.65;;;;;;;5.71;100.00;101639.03;5093253;28;20042;-77
2022/04/04 05:57:01;;;;;;;24.30;16.67;;;;;;;5.98;100.00;101647.31;5094663;28;20120;-76
2022/04/04 05:59:47;;;;;;;22.08;15.82;;;;;;;5.85;100.00;101641.03;5079141;28;20352;-78
2022/04/04 06:02:36;;;;;;;28.38;19.15;;;;;;;6.05;100.00;101650.03;5094972;28;20137;-78
2022/04/04 06:05:22;;;;;;;22.10;15.73;;;;;;;5.91;100.00;101646.31;5094517;28;20530;-78
2022/04/04 06:08:08;;;;;;;22.08;16.00;;;;;;;5.83;100.00;101647.06;5093070;28;20099;-77
2022/04/04 06:10:54;;;;;;;24.00;16.27;;;;;;;5.76;100.00;101646.06;5080658;28;20027;-78
2022/04/04 06:13:40;;;;;;;22.98;16.17;;;;;;;6.16;100.00;101650.19;5093496;28;20063;-78
2022/04/04 06:16:26;;;;;;;23.30;14.55;;;;;;;6.25;100.00;101648.59;5085820;28;20059;-78
2022/04/04 06:19:12;;;;;;;23.90;15.85;;;;;;;6.12;100.00;101651.00;5080447;28;20115;-78
2022/04/04 06:21:58;;;;;;;31.80;20.88;;;;;;;6.28;100.00;101650.38;5078693;28;20028;-78
2022/04/04 06:24:43;;;;;;;23.60;16.08;;;;;;;6.66;100.00;101652.66;5078937;28;20043;-77
2022/04/04 06:27:30;;;;;;;21.67;14.38;;;;;;;6.78;100.00;101650.22;5078656;28;20024;-78
2022/04/04 06:30:16;;;;;;;21.33;14.82;;;;;;;6.29;100.00;101644.31;5080418;28;20028;-79
2022/04/04 06:33:06;;;;;;;20.17;14.20;;;;;;;6.74;100.00;101652.75;5078716;28;20217;-78
2022/04/04 06:35:52;;;;;;;22.88;14.55;;;;;;;6.99;100.00;101650.47;5093710;28;20055;-82
2022/04/04 06:38:37;;;;;;;22.13;15.75;;;;;;;7.09;100.00;101665.38;5099807;28;20024;-78
2022/04/04 06:41:23;;;;;;;19.80;14.75;;;;;;;6.85;100.00;101654.66;5094816;28;20028;-76
2022/04/04 06:44:09;;;;;;;24.58;14.85;;;;;;;6.72;100.00;101652.75;5093570;28;20028;-78
2022/04/04 06:46:56;;;;;;;20.38;14.40;;;;;;;6.97;100.00;101651.31;5078254;28;20035;-78
2022/04/04 06:49:42;;;;;;;20.80;14.63;;;;;;;6.77;100.00;101665.81;5093492;28;20444;-78
2022/04/04 06:52:28;;;;;;;20.40;13.88;;;;;;;6.91;100.00;101670.34;5093804;28;20107;-79
2022/04/04 06:55:15;;;;;;;22.08;14.38;;;;;;;7.52;100.00;101674.50;5094722;28;20123;-78
2022/04/04 06:58:01;;;;;;;20.02;14.38;;;;;;;7.51;100.00;101671.03;5084469;28;20039;-78
2022/04/04 07:00:47;;;;;;;23.75;14.65;;;;;;;7.83;100.00;101679.13;5098966;28;20053;-78
2022/04/04 07:03:33;;;;;;;21.90;14.35;;;;;;;7.68;100.00;101679.03;5097758;28;20034;-77
2022/04/04 07:06:18;;;;;;;20.00;15.15;;;;;;;7.79;100.00;101673.03;5097631;28;20494;-78
2022/04/04 07:09:04;;;;;;;25.25;15.25;;;;;;;8.11;100.00;101678.50;5082196;28;20028;-78
2022/04/04 07:11:53;;;;;;;20.42;14.75;;;;;;;8.14;100.00;101683.75;5097655;28;20020;-79
2022/04/04 07:14:39;;;;;;;17.55;13.48;;;;;;;8.34;100.00;101676.97;5097403;28;20109;-78
2022/04/04 07:17:25;;;;;;;17.88;12.98;;;;;;;8.04;100.00;101674.13;5097831;28;20024;-78
2022/04/04 07:20:12;;;;;;;15.75;12.23;;;;;;;8.40;100.00;101682.25;5096658;28;20066;-78
2022/04/04 07:22:59;;;;;;;18.10;12.15;;;;;;;8.56;100.00;101687.56;5096639;28;20035;-78
2022/04/04 07:25:47;;;;;;;18.15;12.32;;;;;;;8.43;100.00;101675.31;5097125;28;20032;-78
2022/04/04 07:28:34;;;;;;;16.17;12.10;;;;;;;8.39;100.00;101681.38;5097806;28;20500;-78
2022/04/04 07:31:19;;;;;;;15.70;11.77;;;;;;;8.62;100.00;101686.75;5096066;28;20032;-78
2022/04/04 07:34:05;;;;;;;18.23;11.18;;;;;;;8.56;100.00;101691.94;5095860;28;20039;-78
2022/04/04 07:36:51;;;;;;;14.43;11.00;;;;;;;8.55;100.00;101690.16;5095294;28;20174;-79
2022/04/04 07:39:37;;;;;;;19.63;11.68;;;;;;;8.94;100.00;101696.50;5080873;28;20376;-79
2022/04/04 07:42:23;;;;;;;27.75;12.10;;;;;;;9.04;100.00;101700.00;5096274;28;20028;-78
2022/04/04 07:45:11;;;;;;;15.88;10.73;;;;;;;9.27;100.00;101695.75;5097933;28;20089;-79
2022/04/04 07:47:58;;;;;;;17.13;10.45;;;;;;;9.40;97.79;101692.31;5095819;28;20020;-78
2022/04/04 07:50:45;;;;;;;12.60;9.90;;;;;;;9.17;94.61;101694.84;5097143;28;20028;-79
2022/04/04 07:53:31;;;;;;;15.52;10.63;;;;;;;9.34;92.33;101693.19;5097158;28;20444;-78
2022/04/04 07:56:16;;;;;;;19.52;11.20;;;;;;;9.24;92.24;101706.19;5095710;28;20107;-78
2022/04/04 07:59:02;;;;;;;13.80;10.07;;;;;;;9.27;94.89;101709.72;5096001;28;20036;-78
2022/04/04 08:01:48;;;;;;;15.50;9.90;;;;;;;9.79;86.53;101705.47;5081725;28;20403;-79
2022/04/04 08:04:34;;;;;;;13.65;9.50;;;;;;;10.04;84.61;101707.22;5096270;28;20024;-79
2022/04/04 08:07:20;;;;;;;15.10;9.93;;;;;;;10.50;81.01;101703.78;5080412;28;20349;-79
2022/04/04 08:10:06;;;;;;;16.85;10.18;;;;;;;10.46;76.15;101706.38;5096323;28;20019;-78
2022/04/04 08:12:52;;;;;;;11.90;9.00;;;;;;;10.48;74.39;101707.28;5081236;28;20127;-78
2022/04/04 08:15:38;;;;;;;26.98;11.18;;;;;;;10.82;71.21;101708.94;5096394;28;20024;-78
2022/04/04 08:18:24;;;;;;;31.10;9.88;;;;;;;10.90;72.76;101696.66;5095863;28;20032;-79
2022/04/04 08:21:09;;;;;;;9.60;7.65;;;;;;;10.60;69.37;101704.63;5095993;28;20115;-78
2022/04/04 08:23:55;;;;;;;9.82;7.03;;;;;;;10.91;64.99;101691.44;5095656;28;20032;-78
2022/04/04 08:26:41;;;;;;;9.48;7.40;;;;;;;11.38;64.27;101696.47;5096065;28;20023;-78
2022/04/04 08:29:27;;;;;;;10.52;7.53;;;;;;;11.00;65.73;101699.25;5095981;28;20024;-78
2022/04/04 08:32:14;;;;;;;8.70;7.28;;;;;;;11.65;65.87;101694.59;5081415;28;20096;-79
2022/04/04 08:34:59;;;;;;;9.18;7.70;;;;;;;11.88;63.69;101694.44;5095726;28;20020;-79
2022/04/04 08:37:47;;;;;;;12.88;7.60;;;;;;;11.98;62.86;101690.88;5095980;28;20448;-78
2022/04/04 08:40:33;;;;;;;19.05;7.68;;;;;;;11.63;59.65;101687.59;5094167;28;20028;-79
2022/04/04 08:43:19;;;;;;;7.93;6.18;;;;;;;11.90;54.94;101692.69;5081342;28;20028;-79
2022/04/04 08:46:06;;;;;;;10.63;6.18;;;;;;;11.72;54.22;101690.16;5095528;28;20024;-80
2022/04/04 08:48:55;;;;;;;10.70;6.95;;;;;;;12.02;55.48;101685.56;5067102;28;20448;-79
2022/04/04 08:51:42;;;;;;;10.82;7.80;;;;;;;12.26;57.91;101693.22;5095437;28;20028;-79
2022/04/04 08:54:28;;;;;;;9.18;6.97;;;;;;;12.25;57.33;101695.88;5080648;28;20097;-79
2022/04/04 08:57:14;;;;;;;9.18;7.03;;;;;;;12.21;55.60;101689.78;5094935;28;20028;-78
2022/04/04 09:00:00;;;;;;;9.45;7.53;;;;;;;12.59;55.52;101697.31;5095104;28;20394;-78
2022/04/04 09:03:03;;;;;;;11.27;8.27;;;;;;;11.98;57.73;101680.34;5079835;28;20024;-78
2022/04/04 09:05:54;;;;;;;14.90;8.90;;;;;;;12.32;57.74;101671.28;5094865;28;20115;-77
2022/04/04 09:08:44;;;;;;;9.80;8.13;;;;;;;11.98;56.16;101661.97;5079912;28;20023;-77
2022/04/04 09:11:30;;;;;;;9.02;7.15;;;;;;;12.24;54.53;101652.97;5095155;28;20038;-78
2022/04/04 09:14:20;;;;;;;16.48;8.70;;;;;;;12.41;55.35;101653.69;5094454;28;20051;-77
2022/04/04 09:17:07;;;;;;;15.25;9.68;;;;;;;12.13;56.46;101646.94;5094708;28;20051;-77
2022/04/04 09:19:53;;;;;;;15.20;9.77;;;;;;;12.62;55.85;101644.72;5094282;28;20107;-77
2022/04/04 09:22:53;;;;;;;13.23;10.07;;;;;;;12.55;54.56;101643.91;5094861;28;20038;-77
2022/04/04 09:25:39;;;;;;;12.43;9.40;;;;;;;12.70;54.07;101640.22;5079512;28;20371;-77
2022/04/04 09:28:25;;;;;;;12.55;9.80;;;;;;;13.13;53.73;101638.81;5082388;28;20049;-77
2022/04/04 09:31:10;;;;;;;16.20;10.70;;;;;;;12.79;54.07;101638.38;5094664;28;20474;-77
2022/04/04 09:34:04;;;;;;;13.88;10.25;;;;;;;12.88;52.17;101625.09;5094371;28;20031;-76
2022/04/04 09:36:50;;;;;;;13.40;9.93;;;;;;;12.96;50.85;101623.25;5094028;28;20040;-76
2022/04/04 09:39:36;;;;;;;14.70;11.23;;;;;;;12.79;51.40;101626.97;5094513;28;20031;-76
2022/04/04 09:42:22;;;;;;;15.57;10.73;;;;;;;12.86;51.66;101618.13;5093934;28;20081;-77
2022/04/04 09:45:13;;;;;;;13.60;8.98;;;;;;;12.77;50.64;101603.31;5097399;28;20448;-75
2022/04/04 09:48:11;;;;;;;11.07;8.77;;;;;;;12.30;50.88;101612.63;5094038;28;20024;-77
2022/04/04 09:50:57;;;;;;;12.32;7.40;;;;;;;12.29;50.69;101610.88;5080007;28;20020;-78
2022/04/04 09:53:43;;;;;;;14.60;8.20;;;;;;;12.88;48.74;101605.81;5093767;28;20432;-77
2022/04/04 09:56:29;;;;;;;12.75;8.45;;;;;;;12.51;49.20;101610.66;5093850;28;20024;-76
2022/04/04 09:59:17;;;;;;;11.68;8.93;;;;;;;12.86;49.36;101600.56;5079658;28;20089;-77
2022/04/04 10:02:05;;;;;;;14.30;10.48;;;;;;;11.80;51.20;101602.59;5095551;28;20031;-77
2022/04/04 10:04:54;;;;;;;15.52;10.07;;;;;;;12.04;51.42;101591.88;5094868;28;20028;-77
2022/04/04 10:07:40;;;;;;;14.82;10.20;;;;;;;12.63;51.31;101596.50;5094034;28;20074;-77
2022/04/04 10:10:29;;;;;;;12.48;9.18;;;;;;;12.58;49.52;101600.94;5093855;28;20028;-77
2022/04/04 10:13:16;;;;;;;13.45;8.88;;;;;;;12.64;49.77;101603.47;5079474;28;20044;-76
2022/04/04 10:16:03;;;;;;;14.43;10.02;;;;;;;12.91;51.07;101587.38;5094163;28;20035;-75
2022/04/04 10:18:51;;;;;;;17.88;11.02;;;;;;;12.37;53.40;101588.00;5093137;28;20111;-77
2022/04/04 10:21:37;;;;;;;12.68;10.32;;;;;;;12.91;52.09;101585.59;5095008;28;20441;-77
2022/04/04 10:24:23;;;;;;;15.25;10.43;;;;;;;12.64;51.37;101585.97;5095033;28;20050;-77
2022/04/04 10:27:12;;;;;;;14.13;10.00;;;;;;;13.22;50.62;101578.22;5093658;28;20034;-77
2022/04/04 10:30:08;;;;;;;14.00;9.95;;;;;;;12.56;51.52;101571.16;5096158;28;20059;-77
2022/04/04 10:32:54;;;;;;;12.38;10.25;;;;;;;12.63;51.25;101578.09;5084210;28;20448;-77
2022/04/04 10:35:41;;;;;;;12.55;10.32;;;;;;;12.17;53.67;101576.88;5097752;28;20060;-77
2022/04/04 10:38:37;;;;;;;12.50;10.25;;;;;;;12.75;52.49;101565.66;5098435;28;20024;-77
2022/04/04 10:41:28;;;;;;;12.15;9.00;;;;;;;12.45;50.97;101571.28;5097304;28;20192;-78
2022/04/04 10:44:13;;;;;;;10.32;8.18;;;;;;;12.55;49.37;101569.41;5097194;28;20032;-77
2022/04/04 10:47:02;;;;;;;9.63;7.78;;;;;;;12.71;46.45;101568.34;5097556;28;20028;-76
2022/04/04 10:49:48;;;;;;;9.98;8.00;;;;;;;12.51;47.51;101571.22;5083065;28;20100;-78
2022/04/04 10:52:42;;;;;;;15.23;9.30;;;;;;;12.52;49.78;101570.34;5097341;28;20089;-76
2022/04/04 10:55:36;;;;;;;15.68;10.13;;;;;;;12.38;51.89;101566.97;5097341;28;20084;-76
2022/04/04 10:58:23;;;;;;;16.23;11.95;;;;;;;12.85;51.98;101564.66;5097667;28;20031;-77
2022/04/04 11:01:20;;;;;;;13.38;10.00;;;;;;;12.96;50.38;101561.88;5097019;28;20024;-76
2022/04/04 11:04:22;;;;;;;14.88;9.90;;;;;;;13.02;50.02;101562.69;5110189;28;20020;-76
2022/04/04 11:10:40;;;;;;;14.77;9.52;;;;;;;13.09;48.97;101548.56;5097356;28;20035;-79
2022/04/04 11:13:26;;;;;;;13.23;9.77;;;;;;;13.66;48.40;101550.28;5096908;28;20052;-77
2022/04/04 11:16:13;;;;;;;14.38;9.02;;;;;;;13.66;47.66;101550.28;5097216;28;20024;-78
2022/04/04 11:19:18;;;;;;;12.10;9.07;;;;;;;13.89;47.22;101542.84;5099313;28;20115;-77
2022/04/04 11:22:04;;;;;;;11.50;9.32;;;;;;;14.26;46.66;101553.59;5096773;28;20093;-78
2022/04/04 11:25:03;;;;;;;12.25;9.45;;;;;;;13.50;47.21;101545.28;5097059;28;20024;-78
2022/04/04 11:27:49;;;;;;;13.75;9.80;;;;;;;14.06;45.54;101531.97;5097836;28;20031;-77
2022/04/04 11:30:36;;;;;;;12.73;10.13;;;;;;;14.22;45.83;101528.19;5081857;28;20456;-76
2022/04/04 11:33:26;;;;;;;14.32;10.32;;;;;;;13.50;44.84;101525.09;5097727;28;20032;-78
2022/04/04 11:36:23;;;;;;;11.60;9.82;;;;;;;13.18;46.40;101524.72;5096714;28;20020;-77
2022/04/04 11:39:10;;;;;;;14.90;11.73;;;;;;;13.27;47.16;101518.47;5097784;28;20107;-77
2022/04/04 11:41:56;;;;;;;13.10;10.23;;;;;;;13.75;46.25;101513.25;5095754;28;20027;-77
2022/04/04 11:44:47;;;;;;;13.95;9.88;;;;;;;12.78;46.74;101499.88;5081073;28;20391;-77
2022/04/04 11:47:33;;;;;;;13.60;10.25;;;;;;;12.67;46.82;101507.06;5096714;28;20032;-77
2022/04/04 11:50:23;;;;;;;14.20;10.18;;;;;;;13.23;46.82;101506.25;5097126;28;20092;-76
2022/04/04 11:53:17;;;;;;;16.13;10.65;;;;;;;13.41;45.64;101498.03;5095043;28;20024;-77
2022/04/04 11:56:10;;;;;;;14.93;10.48;;;;;;;13.40;46.08;101498.94;5080952;28;20107;-78
2022/04/04 11:58:56;;;;;;;12.35;10.30;;;;;;;13.16;45.95;101489.69;5081693;28;20040;-78
2022/04/04 12:01:42;;;;;;;13.70;10.48;;;;;;;13.06;46.18;101487.22;5096158;28;20107;-78
2022/04/04 12:04:29;;;;;;;14.98;10.32;;;;;;;13.02;46.24;101501.31;5068548;28;20459;-79
2022/04/04 12:07:17;;;;;;;14.90;10.40;;;;;;;12.61;46.94;101493.97;5094929;28;20529;-78
2022/04/04 12:10:06;;;;;;;13.85;10.48;;;;;;;12.76;46.51;101495.53;5095983;28;20107;-76
2022/04/04 12:13:00;;;;;;;13.60;10.70;;;;;;;13.03;46.29;101489.91;5082593;28;20080;-75
2022/04/04 12:15:51;;;;;;;14.50;10.50;;;;;;;13.08;46.77;101485.44;5081949;28;20053;-77
2022/04/04 12:18:37;;;;;;;15.75;10.77;;;;;;;13.51;45.48;101495.22;5081991;28;20097;-77
2022/04/04 12:21:23;;;;;;;17.92;12.25;;;;;;;12.89;46.83;101482.19;5099469;28;20105;-77
2022/04/04 12:27:15;;;;;;;14.45;11.27;;;;;;;12.82;47.45;101464.75;5096550;28;20531;-75
2022/04/04 12:30:04;;;;;;;16.00;10.95;;;;;;;13.31;46.65;101465.75;5095772;28;20363;-76
2022/04/04 12:32:50;;;;;;;13.70;10.98;;;;;;;13.02;47.11;101456.59;5096376;28;20085;-77
2022/04/04 12:35:41;;;;;;;15.57;10.57;;;;;;;13.37;47.23;101454.25;5095974;28;20038;-77
2022/04/04 12:38:32;;;;;;;15.55;12.15;;;;;;;12.61;48.26;101445.78;5095185;28;20123;-76
2022/04/04 12:41:17;;;;;;;15.23;11.95;;;;;;;12.79;47.70;101442.91;5095961;28;20027;-77
2022/04/04 12:44:06;;;;;;;17.90;11.45;;;;;;;13.03;46.99;101446.03;5079644;28;20391;-76
2022/04/04 12:47:11;;;;;;;15.75;11.52;;;;;;;13.42;46.79;101442.75;5094966;28;20367;-77
2022/04/04 12:50:13;;;;;;;18.20;12.32;;;;;;;12.96;46.97;101435.59;5080033;28;20020;-76
2022/04/04 12:53:02;;;;;;;15.27;11.70;;;;;;;13.02;46.98;101425.88;5080228;28;20031;-77